Terminal Aerodrome Forecast
Issued by NWS

Home | Current Version | Previous Version | Text Only | Print | Product List | Glossary On
Versions: 1 2 3 4 5 6 7 8 9 10 11 12 13 14 15 16 17 18 19 20
826
FTUS41 KBTV 121740
TAFMSS
TAF
KMSS 121740Z 1218/1318 20013KT P6SM VCSH BKN080
     FM122100 20011KT 2SM -SHSN BR OVC040
     FM130000 21010KT 1SM -SN BR OVC035
     FM130200 22008KT 2SM -SHSN BR OVC020
     FM130400 27012G20KT 5SM -SHSN BR OVC020
     FM130700 30018G28KT P6SM -SHSN OVC025=

USA.gov is the U.S. government's official web portal to all federal, state and local government web resources and services.